Time;durP1;ratioP1;P1;durP2;ratioP2;P2;SDS_P1;SDS_P2;PMS_P1;PMS_P2;Temp;Humidity;BMP_temperature;BMP_pressure;BME280_temperature;BME280_humidity;BME280_pressure;Samples;Min_cycle;Max_cycle;Signal;HPM_P1;HPM_P2
2023/06/09 00:01:44;;;;;;;20.45;8.65;;;12.70;99.90;;;;;;5117363;28;20043;-58
2023/06/09 00:04:13;;;;;;;19.67;7.53;;;12.60;99.90;;;;;;5117819;28;20054;-56
2023/06/09 00:06:39;;;;;;;16.33;7.05;;;12.70;99.90;;;;;;5121053;28;20044;-57
2023/06/09 00:09:06;;;;;;;19.40;8.20;;;12.70;99.90;;;;;;5121529;28;20048;-58
2023/06/09 00:11:35;;;;;;;16.67;7.25;;;12.70;99.90;;;;;;5120976;28;20048;-57
2023/06/09 00:14:01;;;;;;;19.00;6.47;;;12.60;99.90;;;;;;5121379;28;20517;-57
2023/06/09 00:16:28;;;;;;;15.43;6.28;;;12.60;99.90;;;;;;5121334;28;20128;-57
2023/06/09 00:18:55;;;;;;;15.73;7.07;;;12.60;99.90;;;;;;5121082;28;20043;-57
2023/06/09 00:21:21;;;;;;;16.63;6.20;;;12.50;99.90;;;;;;5121304;28;20402;-57
2023/06/09 00:23:48;;;;;;;18.27;6.75;;;12.60;99.90;;;;;;5120729;28;20095;-57
2023/06/09 00:26:13;;;;;;;15.98;5.90;;;12.50;99.90;;;;;;5121444;28;20046;-57
2023/06/09 00:28:42;;;;;;;14.70;5.80;;;12.50;99.90;;;;;;5120519;28;20043;-57
2023/06/09 00:31:08;;;;;;;14.73;6.97;;;12.50;99.90;;;;;;5119522;28;20047;-57
2023/06/09 00:33:34;;;;;;;19.92;6.57;;;12.50;99.90;;;;;;5121116;28;20054;-58
2023/06/09 00:36:00;;;;;;;18.65;6.85;;;12.50;99.90;;;;;;5120671;28;20055;-57
2023/06/09 00:38:26;;;;;;;16.45;7.70;;;12.50;99.90;;;;;;5120718;28;20070;-57
2023/06/09 00:40:52;;;;;;;16.48;6.97;;;12.50;99.90;;;;;;5120834;28;20039;-57
2023/06/09 00:43:18;;;;;;;16.10;6.88;;;12.40;99.90;;;;;;5120758;28;20044;-57
2023/06/09 00:45:43;;;;;;;22.73;6.80;;;12.50;99.90;;;;;;5120145;28;20042;-57
2023/06/09 00:48:09;;;;;;;17.45;6.32;;;12.50;99.90;;;;;;5120945;28;20058;-57
2023/06/09 00:50:36;;;;;;;16.45;6.50;;;12.40;99.90;;;;;;5120733;28;20032;-57
2023/06/09 00:53:03;;;;;;;17.40;6.30;;;12.50;99.90;;;;;;5118985;28;20044;-57
2023/06/09 00:55:30;;;;;;;16.80;7.13;;;12.50;99.90;;;;;;5120569;28;20043;-57
2023/06/09 00:58:00;;;;;;;16.40;6.25;;;12.50;99.90;;;;;;5120533;28;20091;-57
2023/06/09 01:00:27;;;;;;;20.75;9.35;;;12.50;99.90;;;;;;5119071;28;20063;-57
2023/06/09 01:03:00;;;;;;;20.90;7.55;;;12.50;99.90;;;;;;5119917;28;20032;-57
2023/06/09 01:05:28;;;;;;;18.58;7.07;;;12.50;99.90;;;;;;5120549;28;20080;-57
2023/06/09 01:08:01;;;;;;;16.70;6.75;;;12.50;99.90;;;;;;5120155;28;20517;-58
2023/06/09 01:10:45;;;;;;;26.80;8.02;;;12.50;99.90;;;;;;5120086;28;20051;-58
2023/06/09 01:13:22;;;;;;;18.70;6.65;;;12.50;99.90;;;;;;5119945;28;20638;-58
2023/06/09 01:15:53;;;;;;;18.38;6.85;;;12.50;99.90;;;;;;5119771;28;20079;-59
2023/06/09 01:18:24;;;;;;;16.63;6.78;;;12.50;99.90;;;;;;5120262;28;20047;-57
2023/06/09 01:20:53;;;;;;;17.30;7.18;;;12.50;99.90;;;;;;5119982;28;20043;-58
2023/06/09 01:23:58;;;;;;;16.27;6.70;;;12.50;99.90;;;;;;5119597;28;20052;-58
2023/06/09 01:26:25;;;;;;;15.90;7.38;;;12.50;99.90;;;;;;5118542;28;20399;-58
2023/06/09 01:28:52;;;;;;;18.08;6.97;;;12.40;99.90;;;;;;5119495;28;20031;-58
2023/06/09 01:31:18;;;;;;;18.05;7.00;;;12.40;99.90;;;;;;5119497;28;20083;-57
2023/06/09 01:33:45;;;;;;;17.42;7.15;;;12.40;99.90;;;;;;5119569;28;20044;-58
2023/06/09 01:36:11;;;;;;;16.65;7.05;;;12.50;99.90;;;;;;5119721;28;20062;-58
2023/06/09 01:38:38;;;;;;;15.32;7.05;;;12.50;99.90;;;;;;5119392;28;20038;-57
2023/06/09 01:41:04;;;;;;;21.10;7.70;;;12.50;99.90;;;;;;5119446;27;20043;-57
2023/06/09 01:43:29;;;;;;;19.83;7.32;;;12.50;99.90;;;;;;5119737;28;20495;-57
2023/06/09 01:45:55;;;;;;;16.90;7.10;;;12.50;99.90;;;;;;5119013;28;20049;-57
2023/06/09 01:48:51;;;;;;;18.70;7.32;;;12.50;99.90;;;;;;5119612;28;20042;-56
2023/06/09 01:51:32;;;;;;;18.75;7.43;;;12.50;99.90;;;;;;5118179;28;20383;-57
2023/06/09 01:54:14;;;;;;;23.80;8.20;;;12.40;99.90;;;;;;5118921;28;20047;-57
2023/06/09 01:56:55;;;;;;;18.40;7.05;;;12.40;99.90;;;;;;5119705;28;20080;-57
2023/06/09 01:59:26;;;;;;;17.15;7.45;;;12.50;99.90;;;;;;5119351;28;20043;-57
2023/06/09 02:01:53;;;;;;;14.13;6.80;;;12.40;99.90;;;;;;5117634;28;20060;-56
2023/06/09 02:04:23;;;;;;;18.35;7.10;;;12.50;99.90;;;;;;5119064;28;20048;-57
2023/06/09 02:06:49;;;;;;;18.42;7.40;;;12.50;99.90;;;;;;5118741;28;20044;-57
2023/06/09 02:09:16;;;;;;;17.05;7.45;;;12.40;99.90;;;;;;5119467;28;20044;-57
2023/06/09 02:11:42;;;;;;;18.95;7.38;;;12.40;99.90;;;;;;5118691;28;20094;-57
2023/06/09 02:14:07;;;;;;;16.85;6.97;;;12.40;99.90;;;;;;5118887;28;20048;-57
2023/06/09 02:16:34;;;;;;;15.43;6.80;;;12.40;99.90;;;;;;5118986;28;20039;-57
2023/06/09 02:19:00;;;;;;;20.35;8.52;;;12.40;99.90;;;;;;5118813;28;20051;-57
2023/06/09 02:21:26;;;;;;;19.15;7.40;;;12.30;99.90;;;;;;5118789;28;20039;-57
2023/06/09 02:23:51;;;;;;;23.70;7.95;;;12.30;99.90;;;;;;5118338;28;20067;-57
2023/06/09 02:26:17;;;;;;;17.42;7.85;;;12.30;99.90;;;;;;5119240;28;20088;-57
2023/06/09 02:28:43;;;;;;;17.90;7.57;;;12.30;99.90;;;;;;5117910;28;20054;-57
2023/06/09 02:31:08;;;;;;;17.42;6.88;;;12.20;99.90;;;;;;5117026;28;20641;-58
2023/06/09 02:33:34;;;;;;;20.58;8.57;;;12.20;99.90;;;;;;5118538;28;20050;-57
2023/06/09 02:36:00;;;;;;;20.75;7.28;;;12.20;99.90;;;;;;5118283;28;20114;-57
2023/06/09 02:38:26;;;;;;;16.58;7.72;;;12.20;99.90;;;;;;5118517;28;20044;-58
2023/06/09 02:40:52;;;;;;;21.25;8.27;;;12.20;99.90;;;;;;5118462;28;20071;-58
2023/06/09 02:43:18;;;;;;;25.77;8.48;;;12.20;99.90;;;;;;5117254;28;20545;-57
2023/06/09 02:45:43;;;;;;;20.67;8.38;;;12.10;99.90;;;;;;5118036;28;20044;-57
2023/06/09 02:48:09;;;;;;;23.30;8.75;;;12.20;99.90;;;;;;5118658;28;20554;-57
2023/06/09 02:50:36;;;;;;;19.80;8.88;;;12.20;99.90;;;;;;5117972;28;20127;-57
2023/06/09 02:53:01;;;;;;;20.60;8.32;;;12.20;99.90;;;;;;5118348;28;20036;-57
2023/06/09 02:55:28;;;;;;;19.10;8.70;;;12.20;99.90;;;;;;5118390;28;20050;-57
2023/06/09 02:57:54;;;;;;;20.20;8.50;;;12.20;99.90;;;;;;5118059;28;20055;-57
2023/06/09 03:00:20;;;;;;;21.05;8.52;;;12.30;99.90;;;;;;5118471;28;20043;-57
2023/06/09 03:02:46;;;;;;;20.52;8.15;;;12.20;99.90;;;;;;5117681;28;20514;-57
2023/06/09 03:05:12;;;;;;;20.88;8.70;;;12.30;99.90;;;;;;5118502;28;20051;-57
2023/06/09 03:07:37;;;;;;;24.30;10.07;;;12.30;99.90;;;;;;5118204;28;20087;-56
2023/06/09 03:10:06;;;;;;;17.38;8.27;;;12.30;99.90;;;;;;5118248;28;20048;-56
2023/06/09 03:12:32;;;;;;;21.00;8.88;;;12.30;99.90;;;;;;5117848;28;20077;-56
2023/06/09 03:14:58;;;;;;;19.63;9.13;;;12.20;99.90;;;;;;5118311;28;20062;-57
2023/06/09 03:17:24;;;;;;;21.05;9.48;;;12.20;99.90;;;;;;5118046;28;20032;-57
2023/06/09 03:19:51;;;;;;;23.38;10.70;;;12.20;99.90;;;;;;5117736;28;20075;-57
2023/06/09 03:22:17;;;;;;;29.98;11.43;;;12.20;99.90;;;;;;5118489;28;20065;-56
2023/06/09 03:24:44;;;;;;;22.95;11.75;;;12.30;99.90;;;;;;5117872;28;20051;-56
2023/06/09 03:27:11;;;;;;;27.67;10.63;;;12.30;99.90;;;;;;5118196;28;20043;-57
2023/06/09 03:29:36;;;;;;;23.25;11.65;;;12.20;99.90;;;;;;5118198;28;20040;-57
2023/06/09 03:32:02;;;;;;;26.85;12.20;;;12.30;99.90;;;;;;5117969;28;20540;-57
2023/06/09 03:34:29;;;;;;;29.02;13.13;;;12.30;99.90;;;;;;5117854;28;20055;-57
2023/06/09 03:36:55;;;;;;;25.50;12.30;;;12.20;99.90;;;;;;5117612;28;20071;-57
2023/06/09 03:39:20;;;;;;;25.02;12.73;;;12.20;99.90;;;;;;5119165;28;20031;-57
2023/06/09 03:41:46;;;;;;;23.75;11.77;;;12.30;99.90;;;;;;5121641;28;20100;-57
2023/06/09 03:44:12;;;;;;;25.10;12.13;;;12.30;99.90;;;;;;5122155;28;20103;-56
2023/06/09 03:46:37;;;;;;;22.02;12.43;;;12.30;99.90;;;;;;5121559;28;20047;-57
2023/06/09 03:49:03;;;;;;;22.70;11.57;;;12.30;99.90;;;;;;5121921;27;20043;-57
2023/06/09 03:51:29;;;;;;;23.40;11.20;;;12.30;99.90;;;;;;5121401;28;20054;-56
2023/06/09 03:53:54;;;;;;;24.02;11.25;;;12.40;99.90;;;;;;5121383;28;20063;-56
2023/06/09 03:56:20;;;;;;;25.00;10.73;;;12.40;99.90;;;;;;5120711;28;20048;-57
2023/06/09 03:58:46;;;;;;;22.50;11.18;;;12.40;99.90;;;;;;5121268;28;20044;-56
2023/06/09 04:01:12;;;;;;;23.95;11.45;;;12.40;99.90;;;;;;5121502;28;20043;-57
2023/06/09 04:03:38;;;;;;;24.95;11.55;;;12.50;99.90;;;;;;5121375;28;20073;-56
2023/06/09 04:06:05;;;;;;;22.02;10.80;;;12.50;99.90;;;;;;5121604;28;20453;-57
2023/06/09 04:08:31;;;;;;;23.88;10.55;;;12.50;99.90;;;;;;5121167;28;20064;-56
2023/06/09 04:10:57;;;;;;;23.55;10.30;;;12.60;99.90;;;;;;5121402;28;20063;-56
2023/06/09 04:13:23;;;;;;;22.52;12.02;;;12.60;99.90;;;;;;5119952;28;20055;-56
2023/06/09 04:15:49;;;;;;;25.85;12.70;;;12.70;99.90;;;;;;5120826;28;20042;-57
2023/06/09 04:18:15;;;;;;;24.17;10.18;;;12.70;99.90;;;;;;5121405;28;20028;-57
2023/06/09 04:20:41;;;;;;;21.55;10.48;;;12.70;99.90;;;;;;5121280;28;20430;-57
2023/06/09 04:23:08;;;;;;;22.17;10.27;;;12.70;99.90;;;;;;5120487;28;20067;-56
2023/06/09 04:25:35;;;;;;;22.90;9.52;;;12.70;99.90;;;;;;5120817;28;20119;-56
2023/06/09 04:28:05;;;;;;;22.10;10.23;;;12.80;99.90;;;;;;5121179;28;20554;-57
2023/06/09 04:30:34;;;;;;;28.15;10.57;;;12.80;99.90;;;;;;5121079;27;20074;-57
2023/06/09 04:33:00;;;;;;;18.08;8.77;;;12.80;99.90;;;;;;5120639;28;20054;-57
2023/06/09 04:35:25;;;;;;;23.27;9.93;;;12.80;99.90;;;;;;5121084;28;20051;-57
2023/06/09 04:37:51;;;;;;;18.48;8.75;;;12.90;99.90;;;;;;5120945;28;20043;-56
2023/06/09 04:40:25;;;;;;;19.60;8.23;;;13.00;99.90;;;;;;5120839;28;20044;-56
2023/06/09 04:42:53;;;;;;;21.05;9.32;;;13.00;99.90;;;;;;5120560;28;20047;-56
2023/06/09 04:45:20;;;;;;;16.67;7.97;;;13.10;99.90;;;;;;5120562;28;20108;-57
2023/06/09 04:47:49;;;;;;;19.23;8.63;;;13.20;99.90;;;;;;5121209;28;20050;-57
2023/06/09 04:50:17;;;;;;;16.30;7.30;;;13.20;99.90;;;;;;5119931;28;20525;-56
2023/06/09 04:52:44;;;;;;;14.45;7.22;;;13.30;99.90;;;;;;5120725;28;20044;-56
2023/06/09 04:55:12;;;;;;;16.98;7.38;;;13.40;99.90;;;;;;5120215;28;20051;-57
2023/06/09 04:57:38;;;;;;;20.70;7.47;;;13.50;99.90;;;;;;5120483;28;20691;-56
2023/06/09 05:00:07;;;;;;;18.75;7.30;;;13.50;99.90;;;;;;5120312;28;20028;-57
2023/06/09 05:02:32;;;;;;;24.98;9.48;;;13.70;99.90;;;;;;5119970;28;20044;-57
2023/06/09 05:04:58;;;;;;;16.88;6.93;;;13.80;99.90;;;;;;5120712;28;20131;-56
2023/06/09 05:07:24;;;;;;;17.52;7.38;;;13.80;99.90;;;;;;5120282;28;20035;-56
2023/06/09 05:09:49;;;;;;;18.27;7.40;;;13.80;99.90;;;;;;5118798;28;20056;-57
2023/06/09 05:12:15;;;;;;;18.83;8.20;;;13.90;99.90;;;;;;5119837;28;20051;-57
2023/06/09 05:14:42;;;;;;;16.90;7.38;;;13.90;99.90;;;;;;5119900;28;20040;-57
2023/06/09 05:17:08;;;;;;;19.10;6.93;;;14.00;99.90;;;;;;5120218;28;20108;-57
2023/06/09 05:19:33;;;;;;;16.65;7.28;;;14.10;99.90;;;;;;5119740;28;20368;-57
2023/06/09 05:21:59;;;;;;;21.23;7.63;;;14.20;99.90;;;;;;5120673;28;20043;-57
2023/06/09 05:24:25;;;;;;;18.27;7.10;;;14.30;99.90;;;;;;5119572;28;20047;-57
2023/06/09 05:26:50;;;;;;;17.85;6.70;;;14.30;99.90;;;;;;5119965;28;20067;-57
2023/06/09 05:29:16;;;;;;;19.17;7.57;;;14.50;99.90;;;;;;5119840;28;20103;-56
2023/06/09 05:31:42;;;;;;;20.95;6.82;;;14.50;99.90;;;;;;5119691;28;20076;-54
2023/06/09 05:34:07;;;;;;;15.98;7.20;;;14.50;99.90;;;;;;5119632;28;20044;-56
2023/06/09 05:36:34;;;;;;;16.77;7.90;;;14.60;99.90;;;;;;5119627;28;20043;-57
2023/06/09 05:39:00;;;;;;;18.55;7.18;;;14.70;99.90;;;;;;5119752;28;20043;-57
2023/06/09 05:41:25;;;;;;;16.55;6.85;;;14.80;99.90;;;;;;5119343;28;20044;-56
2023/06/09 05:43:52;;;;;;;19.40;7.75;;;14.90;99.90;;;;;;5119797;28;20048;-57
2023/06/09 05:46:17;;;;;;;23.58;8.13;;;14.90;99.90;;;;;;5119425;28;20047;-56
2023/06/09 05:48:43;;;;;;;24.80;7.68;;;14.90;99.90;;;;;;5119447;28;20047;-57
2023/06/09 05:51:09;;;;;;;14.10;6.80;;;15.00;99.90;;;;;;5119042;28;20042;-57
2023/06/09 05:53:34;;;;;;;17.70;7.13;;;15.10;99.90;;;;;;5119391;28;20043;-57
2023/06/09 05:56:00;;;;;;;16.73;7.65;;;15.20;99.90;;;;;;5119282;28;20044;-57
2023/06/09 05:58:27;;;;;;;20.40;7.10;;;15.30;99.90;;;;;;5118994;28;20052;-57
2023/06/09 06:00:57;;;;;;;19.27;6.47;;;15.30;99.90;;;;;;5119590;28;20055;-57
2023/06/09 06:03:23;;;;;;;16.60;6.30;;;15.40;99.90;;;;;;5114243;28;20052;-56
2023/06/09 06:05:49;;;;;;;20.38;8.65;;;15.40;99.90;;;;;;5115559;28;20032;-57
2023/06/09 06:08:15;;;;;;;18.73;7.38;;;15.50;99.90;;;;;;5115585;28;20066;-57
2023/06/09 06:10:40;;;;;;;18.88;7.28;;;15.50;99.90;;;;;;5115406;28;20427;-57
2023/06/09 06:13:07;;;;;;;18.90;7.13;;;15.50;99.90;;;;;;5115599;28;20050;-57
2023/06/09 06:15:32;;;;;;;15.88;7.03;;;15.50;99.90;;;;;;5115013;28;20036;-56
2023/06/09 06:17:58;;;;;;;16.67;6.63;;;15.70;99.90;;;;;;5116100;28;20048;-57
2023/06/09 06:20:24;;;;;;;18.15;6.75;;;15.70;99.90;;;;;;5115020;28;20047;-57
2023/06/09 06:22:50;;;;;;;15.38;6.00;;;15.70;99.90;;;;;;5115930;28;20044;-57
2023/06/09 06:25:17;;;;;;;17.40;6.65;;;15.80;99.90;;;;;;5115800;28;20116;-57
2023/06/09 06:27:43;;;;;;;16.98;6.82;;;15.80;99.90;;;;;;5118749;28;20112;-56
2023/06/09 06:30:09;;;;;;;20.67;7.10;;;15.80;99.90;;;;;;5118331;28;20577;-57
2023/06/09 06:32:36;;;;;;;16.40;6.93;;;15.90;99.90;;;;;;5118123;28;20047;-57
2023/06/09 06:35:02;;;;;;;19.10;6.55;;;16.00;99.90;;;;;;5118868;28;20116;-56
2023/06/09 06:37:28;;;;;;;14.13;6.15;;;16.00;99.90;;;;;;5118358;28;20487;-57
2023/06/09 06:39:54;;;;;;;15.30;6.55;;;16.20;99.90;;;;;;5116960;28;20080;-57
2023/06/09 06:42:20;;;;;;;16.33;6.70;;;16.30;99.90;;;;;;5116437;28;20051;-57
2023/06/09 06:44:46;;;;;;;16.58;6.57;;;16.40;99.90;;;;;;5114502;28;20046;-57
2023/06/09 06:47:11;;;;;;;20.13;7.57;;;16.50;99.90;;;;;;5114043;28;20118;-57
2023/06/09 06:49:37;;;;;;;16.80;6.72;;;16.50;99.90;;;;;;5113419;28;20050;-56
2023/06/09 06:52:03;;;;;;;16.60;6.72;;;16.60;99.90;;;;;;5114191;28;20040;-57
2023/06/09 06:54:29;;;;;;;20.08;6.43;;;16.60;99.90;;;;;;5111768;28;20044;-57
2023/06/09 06:56:54;;;;;;;17.05;6.90;;;16.70;99.90;;;;;;5114112;28;20084;-57
2023/06/09 06:59:20;;;;;;;13.05;5.80;;;16.70;99.90;;;;;;5114408;28;20075;-56
2023/06/09 07:01:46;;;;;;;18.00;7.10;;;16.70;99.90;;;;;;5114370;28;20048;-56
2023/06/09 07:04:12;;;;;;;16.45;6.47;;;16.80;99.90;;;;;;5114486;28;20051;-56
2023/06/09 07:06:38;;;;;;;17.67;6.60;;;16.90;99.90;;;;;;5114047;28;20078;-57
2023/06/09 07:09:04;;;;;;;15.40;6.47;;;16.90;99.90;;;;;;5114705;28;20047;-57
2023/06/09 07:11:32;;;;;;;15.73;6.47;;;17.00;99.90;;;;;;5114017;28;20047;-57
2023/06/09 07:13:58;;;;;;;14.23;6.28;;;17.10;99.90;;;;;;5116354;28;20051;-56
2023/06/09 07:16:23;;;;;;;16.02;7.10;;;17.20;99.90;;;;;;5118552;28;20055;-56
2023/06/09 07:18:49;;;;;;;14.70;6.13;;;17.20;99.90;;;;;;5117850;28;20050;-57
2023/06/09 07:21:15;;;;;;;15.18;6.50;;;17.30;99.90;;;;;;5118301;28;20051;-57
2023/06/09 07:23:40;;;;;;;18.00;6.38;;;17.30;99.90;;;;;;5118194;28;20043;-55
2023/06/09 07:26:07;;;;;;;20.48;6.32;;;17.40;99.90;;;;;;5117316;28;20048;-56
2023/06/09 07:28:32;;;;;;;13.50;6.75;;;17.50;99.90;;;;;;5118159;28;20047;-57
2023/06/09 07:30:58;;;;;;;15.63;6.60;;;17.50;99.90;;;;;;5117468;28;20054;-57
2023/06/09 07:33:24;;;;;;;16.50;6.38;;;17.70;99.90;;;;;;5121670;28;20095;-57
2023/06/09 07:35:52;;;;;;;16.25;6.75;;;17.70;99.90;;;;;;5120809;27;20062;-56
2023/06/09 07:38:18;;;;;;;19.92;6.93;;;17.90;99.90;;;;;;5120956;28;20055;-57
2023/06/09 07:40:44;;;;;;;16.20;6.75;;;17.90;99.90;;;;;;5121308;28;20043;-57
2023/06/09 07:43:09;;;;;;;15.40;5.95;;;17.90;99.90;;;;;;5122207;28;20039;-57
2023/06/09 07:45:35;;;;;;;22.02;8.27;;;18.00;99.90;;;;;;5120373;28;20043;-56
2023/06/09 07:48:01;;;;;;;15.93;6.55;;;18.00;99.90;;;;;;5120942;28;20039;-57
2023/06/09 07:50:26;;;;;;;16.45;6.40;;;18.20;99.90;;;;;;5119031;28;20452;-57
2023/06/09 07:52:52;;;;;;;13.75;5.80;;;18.30;99.90;;;;;;5120666;28;20075;-57
2023/06/09 07:55:18;;;;;;;21.95;7.05;;;18.40;99.90;;;;;;5118900;28;20107;-56
2023/06/09 07:57:43;;;;;;;11.80;5.82;;;18.60;99.90;;;;;;5120357;28;20035;-57
2023/06/09 08:00:10;;;;;;;14.38;6.43;;;18.50;99.90;;;;;;5120803;28;20047;-57
2023/06/09 08:02:42;;;;;;;12.38;5.47;;;18.60;99.90;;;;;;5119829;28;20028;-57
2023/06/09 08:05:09;;;;;;;17.92;6.40;;;18.70;99.90;;;;;;5120704;28;20139;-56
2023/06/09 08:07:35;;;;;;;14.52;5.95;;;18.90;99.90;;;;;;5120181;28;20042;-56
2023/06/09 08:10:01;;;;;;;16.25;5.88;;;18.90;99.90;;;;;;5120495;27;20096;-56
2023/06/09 08:12:27;;;;;;;15.15;7.50;;;18.90;99.90;;;;;;5119708;28;20048;-56
2023/06/09 08:14:53;;;;;;;18.85;7.25;;;19.10;99.90;;;;;;5120283;28;20116;-57
2023/06/09 08:17:18;;;;;;;16.02;6.78;;;19.20;99.90;;;;;;5120431;28;20054;-56
2023/06/09 08:19:44;;;;;;;16.67;7.03;;;19.20;99.90;;;;;;5120270;28;20054;-57
2023/06/09 08:22:10;;;;;;;16.13;6.60;;;19.30;99.90;;;;;;5121554;28;20044;-56
2023/06/09 08:24:36;;;;;;;15.88;6.30;;;19.30;99.90;;;;;;5120531;28;20032;-56
2023/06/09 08:27:02;;;;;;;15.43;5.75;;;19.30;99.90;;;;;;5120747;28;20038;-56
2023/06/09 08:29:28;;;;;;;13.70;6.50;;;19.50;99.90;;;;;;5119676;28;20129;-56
2023/06/09 08:31:54;;;;;;;14.80;6.38;;;19.60;99.90;;;;;;5120803;28;20040;-56
2023/06/09 08:34:19;;;;;;;13.63;5.85;;;19.70;99.90;;;;;;5120447;28;20044;-57
2023/06/09 08:36:45;;;;;;;13.60;5.97;;;19.80;99.90;;;;;;5118475;28;20146;-57
2023/06/09 08:39:11;;;;;;;15.40;6.13;;;19.90;99.90;;;;;;5119670;28;20085;-56
2023/06/09 08:41:41;;;;;;;13.77;6.97;;;20.10;99.90;;;;;;5118991;28;20070;-56
2023/06/09 08:44:07;;;;;;;14.75;5.78;;;20.10;99.90;;;;;;5118927;28;20077;-56
2023/06/09 08:46:36;;;;;;;14.98;6.18;;;20.20;99.90;;;;;;5118074;28;20134;-57
2023/06/09 08:49:02;;;;;;;14.55;6.10;;;20.30;99.90;;;;;;5119937;28;20039;-57
2023/06/09 08:51:28;;;;;;;15.45;6.65;;;20.30;99.90;;;;;;5120044;28;20089;-57
2023/06/09 08:53:55;;;;;;;15.73;6.72;;;20.40;99.90;;;;;;5120060;28;20052;-56
2023/06/09 08:56:22;;;;;;;14.48;6.60;;;20.40;99.90;;;;;;5120993;28;20039;-57
2023/06/09 08:58:51;;;;;;;14.55;6.13;;;20.50;99.90;;;;;;5120095;28;20039;-56
2023/06/09 09:01:18;;;;;;;13.82;6.55;;;20.50;99.90;;;;;;5120224;28;20036;-57
2023/06/09 09:03:46;;;;;;;14.77;6.40;;;20.70;99.90;;;;;;5120237;28;20044;-56
2023/06/09 09:06:13;;;;;;;11.48;6.05;;;20.70;99.90;;;;;;5120127;28;20035;-57
2023/06/09 09:08:39;;;;;;;18.35;6.03;;;20.80;99.90;;;;;;5120324;28;20111;-56
2023/06/09 09:11:05;;;;;;;15.35;6.40;;;20.90;99.90;;;;;;5119594;28;20093;-57
2023/06/09 09:13:31;;;;;;;15.55;5.85;;;20.90;99.90;;;;;;5120669;28;20511;-57
2023/06/09 09:16:00;;;;;;;13.68;5.93;;;21.00;99.90;;;;;;5119181;28;20039;-57
2023/06/09 09:18:43;;;;;;;15.02;6.20;;;21.20;99.90;;;;;;5120176;28;20035;-57
2023/06/09 09:21:08;;;;;;;12.63;5.35;;;21.30;99.90;;;;;;5119844;28;20036;-57
2023/06/09 09:23:34;;;;;;;16.58;6.30;;;21.30;99.90;;;;;;5119630;28;20054;-57
2023/06/09 09:26:04;;;;;;;15.35;6.15;;;21.30;99.90;;;;;;5119990;28;20074;-57
2023/06/09 09:28:40;;;;;;;13.30;5.75;;;21.40;99.90;;;;;;5119468;28;20100;-57
2023/06/09 09:31:11;;;;;;;15.18;6.15;;;21.50;99.90;;;;;;5119815;28;20495;-57
2023/06/09 09:33:36;;;;;;;15.48;6.45;;;21.50;99.90;;;;;;5119616;28;20063;-57
2023/06/09 09:36:03;;;;;;;14.65;5.90;;;21.60;99.90;;;;;;5119851;28;20043;-57
2023/06/09 09:38:31;;;;;;;15.45;6.32;;;21.70;99.90;;;;;;5118369;28;20039;-56
2023/06/09 09:40:59;;;;;;;13.60;5.90;;;21.70;99.90;;;;;;5119072;27;20040;-57
2023/06/09 09:43:26;;;;;;;13.63;6.18;;;21.70;99.90;;;;;;5120206;28;20055;-57
2023/06/09 09:45:54;;;;;;;12.90;6.20;;;21.90;99.90;;;;;;5117948;28;20044;-57
2023/06/09 09:48:24;;;;;;;17.05;7.03;;;21.90;99.90;;;;;;5119312;28;20157;-57
2023/06/09 09:50:51;;;;;;;12.77;4.97;;;22.00;99.90;;;;;;5118009;28;20043;-57
2023/06/09 09:53:21;;;;;;;10.60;5.07;;;22.20;99.90;;;;;;5117522;28;20126;-57
2023/06/09 09:55:47;;;;;;;13.45;5.55;;;22.30;99.90;;;;;;5119245;28;20445;-57
2023/06/09 09:58:14;;;;;;;10.73;5.10;;;22.40;99.90;;;;;;5118009;28;20035;-57
2023/06/09 10:00:46;;;;;;;13.52;6.03;;;22.50;99.90;;;;;;5119132;28;20051;-57
2023/06/09 10:03:19;;;;;;;13.38;5.32;;;22.60;99.90;;;;;;5118076;28;20549;-56
2023/06/09 10:05:49;;;;;;;12.05;5.15;;;22.70;99.90;;;;;;5118734;28;20091;-57
2023/06/09 10:08:22;;;;;;;12.65;5.00;;;22.80;99.90;;;;;;5118875;28;20043;-57
2023/06/09 10:10:49;;;;;;;13.07;4.60;;;22.90;99.90;;;;;;5117024;28;20095;-57
2023/06/09 10:13:15;;;;;;;9.90;5.38;;;23.20;99.90;;;;;;5118781;28;20055;-57
2023/06/09 10:15:43;;;;;;;11.80;5.72;;;23.20;99.90;;;;;;5117889;28;20067;-56
2023/06/09 10:18:10;;;;;;;12.77;5.90;;;23.20;99.90;;;;;;5118371;28;20074;-57
2023/06/09 10:20:36;;;;;;;11.55;5.47;;;23.20;99.90;;;;;;5118355;28;20087;-57
2023/06/09 10:23:04;;;;;;;12.82;5.72;;;23.30;99.90;;;;;;5118271;28;20051;-57
2023/06/09 10:25:30;;;;;;;11.65;5.63;;;23.50;99.90;;;;;;5118673;28;20075;-57
2023/06/09 10:27:56;;;;;;;12.10;5.93;;;23.40;99.90;;;;;;5118605;28;20100;-57
2023/06/09 10:30:22;;;;;;;14.68;5.30;;;23.60;99.90;;;;;;5119271;28;20047;-57
2023/06/09 10:33:16;;;;;;;13.23;5.28;;;23.60;99.90;;;;;;5117815;28;20042;-56
2023/06/09 10:35:44;;;;;;;11.23;4.78;;;23.70;99.90;;;;;;5118407;28;20051;-57
2023/06/09 10:38:28;;;;;;;12.57;5.53;;;23.90;99.90;;;;;;5118630;28;20047;-57
2023/06/09 10:41:18;;;;;;;11.82;5.00;;;23.90;99.90;;;;;;5117657;28;20044;-57
2023/06/09 10:43:47;;;;;;;11.68;5.65;;;23.90;99.90;;;;;;5118716;28;20681;-56
2023/06/09 10:46:13;;;;;;;12.73;5.25;;;23.90;99.90;;;;;;5099991;28;20239;-57
2023/06/09 10:48:48;;;;;;;11.30;5.47;;;24.10;99.90;;;;;;5104950;28;20031;-56
2023/06/09 10:51:26;;;;;;;11.05;5.28;;;24.10;99.70;;;;;;5104801;28;20100;-57
2023/06/09 10:54:07;;;;;;;11.10;5.35;;;24.20;99.50;;;;;;5103097;28;20623;-56
2023/06/09 10:56:39;;;;;;;13.05;5.60;;;24.30;98.70;;;;;;5105261;28;20077;-56
2023/06/09 10:59:04;;;;;;;12.80;5.75;;;24.30;99.90;;;;;;5104589;28;20698;-57
2023/06/09 11:01:30;;;;;;;10.23;5.22;;;24.40;99.80;;;;;;5101235;28;20036;-56
2023/06/09 11:03:56;;;;;;;12.38;4.95;;;24.40;99.90;;;;;;5103061;28;20044;-57
2023/06/09 11:06:21;;;;;;;10.25;5.30;;;24.40;99.40;;;;;;5102892;28;20047;-57
2023/06/09 11:09:14;;;;;;;10.55;4.88;;;24.70;99.50;;;;;;5104764;28;20100;-57
2023/06/09 11:11:47;;;;;;;11.02;5.32;;;24.60;97.80;;;;;;5100610;28;20089;-57
2023/06/09 11:14:45;;;;;;;13.40;5.10;;;24.60;99.00;;;;;;5103233;28;20047;-56
2023/06/09 11:17:22;;;;;;;10.32;4.97;;;24.70;98.20;;;;;;5104176;28;20048;-57
2023/06/09 11:19:49;;;;;;;13.00;5.57;;;25.00;98.70;;;;;;5103996;28;20134;-57
2023/06/09 11:22:15;;;;;;;9.68;5.20;;;24.90;98.00;;;;;;5104204;28;20032;-57
2023/06/09 11:24:51;;;;;;;12.82;5.53;;;25.00;98.10;;;;;;5102396;28;20045;-57
2023/06/09 11:27:22;;;;;;;12.57;5.43;;;25.10;96.90;;;;;;5103610;28;20082;-57
2023/06/09 11:30:08;;;;;;;12.50;5.37;;;25.10;96.40;;;;;;5103320;28;20048;-57
2023/06/09 11:32:53;;;;;;;11.88;4.72;;;25.40;97.70;;;;;;5103109;28;20058;-57
2023/06/09 11:35:25;;;;;;;10.57;5.00;;;25.50;96.90;;;;;;5104319;28;20750;-57
2023/06/09 11:37:52;;;;;;;11.50;5.43;;;25.40;96.50;;;;;;5101827;28;20112;-57
2023/06/09 11:40:18;;;;;;;11.32;5.63;;;25.40;96.50;;;;;;5103705;28;20048;-57
2023/06/09 11:42:48;;;;;;;12.30;5.05;;;25.40;96.60;;;;;;5103359;28;20059;-57
2023/06/09 11:45:15;;;;;;;13.27;5.10;;;25.50;96.60;;;;;;5102343;28;20061;-57
2023/06/09 11:47:42;;;;;;;13.27;5.38;;;25.50;96.20;;;;;;5104986;28;20085;-57
2023/06/09 11:50:12;;;;;;;11.48;5.25;;;25.50;94.90;;;;;;5104182;28;20089;-57
2023/06/09 11:52:44;;;;;;;12.60;5.20;;;25.50;95.80;;;;;;5105097;28;20047;-57
2023/06/09 11:55:13;;;;;;;12.30;5.20;;;25.90;96.00;;;;;;5101848;28;20096;-56
2023/06/09 11:57:39;;;;;;;12.10;5.18;;;25.80;95.90;;;;;;5103763;28;20067;-56
2023/06/09 12:00:17;;;;;;;12.40;5.22;;;25.90;95.00;;;;;;5102543;28;20375;-57
2023/06/09 12:02:47;;;;;;;12.90;5.82;;;26.10;94.70;;;;;;5107012;28;20506;-56
2023/06/09 12:05:13;;;;;;;12.40;5.55;;;26.00;96.40;;;;;;5107039;28;20052;-56
2023/06/09 12:07:44;;;;;;;13.80;6.05;;;25.90;98.70;;;;;;5105849;28;20118;-56
2023/06/09 12:10:10;;;;;;;17.50;6.13;;;25.80;99.90;;;;;;5105549;28;20964;-57
2023/06/09 12:12:47;;;;;;;11.95;6.07;;;25.90;99.90;;;;;;5106614;28;20036;-57
2023/06/09 12:15:14;;;;;;;15.95;6.38;;;26.00;99.90;;;;;;5105125;28;20043;-56
2023/06/09 12:17:40;;;;;;;11.75;5.95;;;25.90;99.90;;;;;;5106931;28;20071;-56
2023/06/09 12:20:25;;;;;;;16.65;5.95;;;25.90;99.90;;;;;;5108094;28;20093;-57
2023/06/09 12:23:02;;;;;;;12.50;5.70;;;25.70;99.90;;;;;;5106102;28;20058;-56
2023/06/09 12:25:27;;;;;;;12.35;5.50;;;25.40;99.90;;;;;;5106952;28;20047;-56
2023/06/09 12:27:56;;;;;;;14.68;5.60;;;25.50;99.90;;;;;;5108293;28;20108;-57
2023/06/09 12:30:35;;;;;;;11.25;5.90;;;25.60;99.90;;;;;;5108433;28;20573;-56
2023/06/09 12:33:09;;;;;;;10.38;5.05;;;25.40;99.90;;;;;;5106339;28;20046;-56
2023/06/09 12:35:38;;;;;;;11.45;5.88;;;25.40;99.90;;;;;;5107725;28;20156;-57
2023/06/09 12:38:18;;;;;;;14.30;5.85;;;25.40;99.90;;;;;;5105819;28;20114;-56
2023/06/09 12:40:52;;;;;;;12.20;5.43;;;25.50;99.90;;;;;;5106172;28;20399;-57